sensor_id;sensor_type;location;lat;lon;timestamp;P1;durP1;ratioP1;P2;durP2;ratioP2
45730;SDS011;31440;48.584;13.460;2022-08-07T00:01:25;5.32;;;4.82;;
45730;SDS011;31440;48.584;13.460;2022-08-07T00:03:51;6.78;;;5.85;;
45730;SDS011;31440;48.584;13.460;2022-08-07T00:06:16;7.60;;;6.03;;
45730;SDS011;31440;48.584;13.460;2022-08-07T00:08:42;7.88;;;6.07;;
45730;SDS011;31440;48.584;13.460;2022-08-07T00:11:08;5.75;;;5.10;;
45730;SDS011;31440;48.584;13.460;2022-08-07T00:13:33;6.05;;;4.85;;
45730;SDS011;31440;48.584;13.460;2022-08-07T00:16:01;5.97;;;5.38;;
45730;SDS011;31440;48.584;13.460;2022-08-07T00:18:30;7.47;;;5.20;;
45730;SDS011;31440;48.584;13.460;2022-08-07T00:21:06;10.10;;;5.30;;
45730;SDS011;31440;48.584;13.460;2022-08-07T00:23:34;6.03;;;5.50;;
45730;SDS011;31440;48.584;13.460;2022-08-07T00:26:02;7.85;;;5.53;;
45730;SDS011;31440;48.584;13.460;2022-08-07T00:28:30;7.07;;;5.25;;
45730;SDS011;31440;48.584;13.460;2022-08-07T00:30:56;6.03;;;4.47;;
45730;SDS011;31440;48.584;13.460;2022-08-07T00:33:22;4.28;;;3.92;;
45730;SDS011;31440;48.584;13.460;2022-08-07T00:35:56;4.50;;;4.03;;
45730;SDS011;31440;48.584;13.460;2022-08-07T00:38:22;4.32;;;3.92;;
45730;SDS011;31440;48.584;13.460;2022-08-07T00:40:48;4.28;;;3.88;;
45730;SDS011;31440;48.584;13.460;2022-08-07T00:43:13;4.15;;;3.75;;
45730;SDS011;31440;48.584;13.460;2022-08-07T00:45:40;4.13;;;3.22;;
45730;SDS011;31440;48.584;13.460;2022-08-07T00:48:06;3.85;;;3.50;;
45730;SDS011;31440;48.584;13.460;2022-08-07T00:50:33;4.65;;;3.60;;
45730;SDS011;31440;48.584;13.460;2022-08-07T00:52:59;4.32;;;4.03;;
45730;SDS011;31440;48.584;13.460;2022-08-07T00:55:25;13.35;;;4.75;;
45730;SDS011;31440;48.584;13.460;2022-08-07T00:57:52;4.35;;;3.58;;
45730;SDS011;31440;48.584;13.460;2022-08-07T01:00:18;5.57;;;3.95;;
45730;SDS011;31440;48.584;13.460;2022-08-07T01:02:44;5.00;;;3.83;;
45730;SDS011;31440;48.584;13.460;2022-08-07T01:05:11;3.70;;;3.40;;
45730;SDS011;31440;48.584;13.460;2022-08-07T01:07:38;4.22;;;3.83;;
45730;SDS011;31440;48.584;13.460;2022-08-07T01:10:06;4.40;;;3.97;;
45730;SDS011;31440;48.584;13.460;2022-08-07T01:12:32;3.97;;;3.58;;
45730;SDS011;31440;48.584;13.460;2022-08-07T01:14:59;3.85;;;3.33;;
45730;SDS011;31440;48.584;13.460;2022-08-07T01:17:26;3.92;;;3.45;;
45730;SDS011;31440;48.584;13.460;2022-08-07T01:19:53;4.03;;;3.72;;
45730;SDS011;31440;48.584;13.460;2022-08-07T01:22:22;5.40;;;4.13;;
45730;SDS011;31440;48.584;13.460;2022-08-07T01:24:49;4.55;;;3.00;;
45730;SDS011;31440;48.584;13.460;2022-08-07T01:27:15;3.97;;;3.63;;
45730;SDS011;31440;48.584;13.460;2022-08-07T01:29:41;4.05;;;3.47;;
45730;SDS011;31440;48.584;13.460;2022-08-07T01:32:07;3.72;;;3.10;;
45730;SDS011;31440;48.584;13.460;2022-08-07T01:34:33;5.22;;;3.05;;
45730;SDS011;31440;48.584;13.460;2022-08-07T01:37:07;3.50;;;2.92;;
45730;SDS011;31440;48.584;13.460;2022-08-07T01:39:33;3.20;;;3.00;;
45730;SDS011;31440;48.584;13.460;2022-08-07T01:42:05;3.38;;;2.53;;
45730;SDS011;31440;48.584;13.460;2022-08-07T01:44:32;2.95;;;2.75;;
45730;SDS011;31440;48.584;13.460;2022-08-07T01:46:58;4.07;;;2.85;;
45730;SDS011;31440;48.584;13.460;2022-08-07T01:49:26;3.00;;;2.80;;
45730;SDS011;31440;48.584;13.460;2022-08-07T01:51:52;2.78;;;2.50;;
45730;SDS011;31440;48.584;13.460;2022-08-07T01:54:19;3.00;;;2.80;;
45730;SDS011;31440;48.584;13.460;2022-08-07T01:56:53;5.60;;;3.00;;
45730;SDS011;31440;48.584;13.460;2022-08-07T01:59:27;3.28;;;2.97;;
45730;SDS011;31440;48.584;13.460;2022-08-07T02:02:05;2.85;;;2.38;;
45730;SDS011;31440;48.584;13.460;2022-08-07T02:04:37;2.47;;;2.28;;
45730;SDS011;31440;48.584;13.460;2022-08-07T02:07:09;2.80;;;2.60;;
45730;SDS011;31440;48.584;13.460;2022-08-07T02:09:36;4.07;;;2.40;;
45730;SDS011;31440;48.584;13.460;2022-08-07T02:12:06;3.70;;;2.42;;
45730;SDS011;31440;48.584;13.460;2022-08-07T02:14:51;2.78;;;2.67;;
45730;SDS011;31440;48.584;13.460;2022-08-07T02:17:27;4.05;;;2.30;;
45730;SDS011;31440;48.584;13.460;2022-08-07T02:19:54;4.00;;;2.33;;
45730;SDS011;31440;48.584;13.460;2022-08-07T02:22:23;3.42;;;2.20;;
45730;SDS011;31440;48.584;13.460;2022-08-07T02:24:52;3.22;;;2.58;;
45730;SDS011;31440;48.584;13.460;2022-08-07T02:27:20;2.60;;;2.40;;
45730;SDS011;31440;48.584;13.460;2022-08-07T02:29:48;2.65;;;2.45;;
45730;SDS011;31440;48.584;13.460;2022-08-07T02:32:16;2.47;;;2.28;;
45730;SDS011;31440;48.584;13.460;2022-08-07T02:34:43;2.45;;;2.25;;
45730;SDS011;31440;48.584;13.460;2022-08-07T02:37:11;4.30;;;2.38;;
45730;SDS011;31440;48.584;13.460;2022-08-07T02:39:39;2.38;;;2.20;;
45730;SDS011;31440;48.584;13.460;2022-08-07T02:42:11;2.63;;;2.42;;
45730;SDS011;31440;48.584;13.460;2022-08-07T02:44:38;4.35;;;2.33;;
45730;SDS011;31440;48.584;13.460;2022-08-07T02:47:06;2.63;;;2.42;;
45730;SDS011;31440;48.584;13.460;2022-08-07T02:49:34;2.20;;;2.10;;
45730;SDS011;31440;48.584;13.460;2022-08-07T02:52:00;2.90;;;2.35;;
45730;SDS011;31440;48.584;13.460;2022-08-07T02:54:29;3.03;;;2.10;;
45730;SDS011;31440;48.584;13.460;2022-08-07T02:57:00;2.35;;;2.17;;
45730;SDS011;31440;48.584;13.460;2022-08-07T02:59:27;2.65;;;2.03;;
45730;SDS011;31440;48.584;13.460;2022-08-07T03:04:26;2.75;;;2.33;;
45730;SDS011;31440;48.584;13.460;2022-08-07T03:06:53;4.38;;;2.17;;
45730;SDS011;31440;48.584;13.460;2022-08-07T03:09:19;2.35;;;2.15;;
45730;SDS011;31440;48.584;13.460;2022-08-07T03:11:46;4.03;;;2.10;;
45730;SDS011;31440;48.584;13.460;2022-08-07T03:14:12;2.28;;;2.10;;
45730;SDS011;31440;48.584;13.460;2022-08-07T03:16:39;3.05;;;2.03;;
45730;SDS011;31440;48.584;13.460;2022-08-07T03:19:05;2.20;;;2.00;;
45730;SDS011;31440;48.584;13.460;2022-08-07T03:21:32;2.35;;;2.15;;
45730;SDS011;31440;48.584;13.460;2022-08-07T03:23:58;4.47;;;2.20;;
45730;SDS011;31440;48.584;13.460;2022-08-07T03:26:27;4.13;;;2.10;;
45730;SDS011;31440;48.584;13.460;2022-08-07T03:28:55;2.40;;;2.20;;
45730;SDS011;31440;48.584;13.460;2022-08-07T03:31:23;2.22;;;2.08;;
45730;SDS011;31440;48.584;13.460;2022-08-07T03:33:54;2.20;;;2.00;;
45730;SDS011;31440;48.584;13.460;2022-08-07T03:36:25;2.28;;;2.10;;
45730;SDS011;31440;48.584;13.460;2022-08-07T03:38:55;2.10;;;1.90;;
45730;SDS011;31440;48.584;13.460;2022-08-07T03:41:23;3.53;;;1.80;;
45730;SDS011;31440;48.584;13.460;2022-08-07T03:43:50;2.08;;;1.98;;
45730;SDS011;31440;48.584;13.460;2022-08-07T03:46:18;3.65;;;2.13;;
45730;SDS011;31440;48.584;13.460;2022-08-07T03:48:48;3.38;;;1.85;;
45730;SDS011;31440;48.584;13.460;2022-08-07T03:51:15;2.03;;;1.80;;
45730;SDS011;31440;48.584;13.460;2022-08-07T03:53:42;2.58;;;2.10;;
45730;SDS011;31440;48.584;13.460;2022-08-07T03:56:09;2.70;;;1.73;;
45730;SDS011;31440;48.584;13.460;2022-08-07T03:58:38;1.95;;;1.83;;
45730;SDS011;31440;48.584;13.460;2022-08-07T04:01:05;1.95;;;1.85;;
45730;SDS011;31440;48.584;13.460;2022-08-07T04:03:35;3.38;;;2.10;;
45730;SDS011;31440;48.584;13.460;2022-08-07T04:06:01;2.28;;;1.90;;
45730;SDS011;31440;48.584;13.460;2022-08-07T04:08:27;2.95;;;1.90;;
45730;SDS011;31440;48.584;13.460;2022-08-07T04:10:55;2.08;;;1.80;;
45730;SDS011;31440;48.584;13.460;2022-08-07T04:13:21;2.10;;;1.67;;
45730;SDS011;31440;48.584;13.460;2022-08-07T04:15:48;3.17;;;1.85;;
45730;SDS011;31440;48.584;13.460;2022-08-07T04:18:14;2.17;;;1.90;;
45730;SDS011;31440;48.584;13.460;2022-08-07T04:20:43;3.25;;;2.95;;
45730;SDS011;31440;48.584;13.460;2022-08-07T04:23:10;2.45;;;1.83;;
45730;SDS011;31440;48.584;13.460;2022-08-07T04:25:37;1.80;;;1.70;;
45730;SDS011;31440;48.584;13.460;2022-08-07T04:28:06;2.03;;;1.90;;
45730;SDS011;31440;48.584;13.460;2022-08-07T04:30:35;3.08;;;1.70;;
45730;SDS011;31440;48.584;13.460;2022-08-07T04:33:07;2.10;;;1.90;;
45730;SDS011;31440;48.584;13.460;2022-08-07T04:35:36;2.38;;;1.98;;
45730;SDS011;31440;48.584;13.460;2022-08-07T04:38:07;2.05;;;1.95;;
45730;SDS011;31440;48.584;13.460;2022-08-07T04:40:39;2.15;;;1.95;;
45730;SDS011;31440;48.584;13.460;2022-08-07T04:45:41;2.67;;;2.00;;
45730;SDS011;31440;48.584;13.460;2022-08-07T04:48:37;2.30;;;2.13;;
45730;SDS011;31440;48.584;13.460;2022-08-07T04:51:31;2.08;;;1.98;;
45730;SDS011;31440;48.584;13.460;2022-08-07T04:59:51;2.30;;;2.10;;
45730;SDS011;31440;48.584;13.460;2022-08-07T05:02:28;2.33;;;2.15;;
45730;SDS011;31440;48.584;13.460;2022-08-07T05:05:04;4.55;;;1.95;;
45730;SDS011;31440;48.584;13.460;2022-08-07T05:07:36;4.50;;;1.98;;
45730;SDS011;31440;48.584;13.460;2022-08-07T05:10:15;2.35;;;2.08;;
45730;SDS011;31440;48.584;13.460;2022-08-07T05:12:56;3.72;;;2.28;;
45730;SDS011;31440;48.584;13.460;2022-08-07T05:17:58;2.25;;;2.00;;
45730;SDS011;31440;48.584;13.460;2022-08-07T05:20:30;6.20;;;2.15;;
45730;SDS011;31440;48.584;13.460;2022-08-07T05:23:00;2.22;;;2.13;;
45730;SDS011;31440;48.584;13.460;2022-08-07T05:25:31;3.67;;;2.17;;
45730;SDS011;31440;48.584;13.460;2022-08-07T05:27:59;2.70;;;2.38;;
45730;SDS011;31440;48.584;13.460;2022-08-07T05:30:26;1.90;;;1.80;;
45730;SDS011;31440;48.584;13.460;2022-08-07T05:32:53;2.47;;;2.10;;
45730;SDS011;31440;48.584;13.460;2022-08-07T05:35:20;3.80;;;2.38;;
45730;SDS011;31440;48.584;13.460;2022-08-07T05:37:47;2.28;;;2.08;;
45730;SDS011;31440;48.584;13.460;2022-08-07T05:40:14;2.30;;;2.10;;
45730;SDS011;31440;48.584;13.460;2022-08-07T05:42:44;2.70;;;2.50;;
45730;SDS011;31440;48.584;13.460;2022-08-07T05:45:11;4.05;;;2.63;;
45730;SDS011;31440;48.584;13.460;2022-08-07T05:47:37;3.25;;;2.45;;
45730;SDS011;31440;48.584;13.460;2022-08-07T05:50:04;5.75;;;2.50;;
45730;SDS011;31440;48.584;13.460;2022-08-07T05:52:31;4.88;;;2.45;;
45730;SDS011;31440;48.584;13.460;2022-08-07T05:54:56;2.50;;;2.30;;
45730;SDS011;31440;48.584;13.460;2022-08-07T05:57:24;4.95;;;2.42;;
45730;SDS011;31440;48.584;13.460;2022-08-07T05:59:51;4.43;;;2.40;;
45730;SDS011;31440;48.584;13.460;2022-08-07T06:02:19;3.00;;;2.50;;
45730;SDS011;31440;48.584;13.460;2022-08-07T06:04:51;2.85;;;2.65;;
45730;SDS011;31440;48.584;13.460;2022-08-07T06:07:20;2.60;;;2.40;;
45730;SDS011;31440;48.584;13.460;2022-08-07T06:09:48;3.30;;;2.38;;
45730;SDS011;31440;48.584;13.460;2022-08-07T06:12:14;3.05;;;2.38;;
45730;SDS011;31440;48.584;13.460;2022-08-07T06:14:41;2.33;;;2.13;;
45730;SDS011;31440;48.584;13.460;2022-08-07T06:17:07;4.20;;;2.00;;
45730;SDS011;31440;48.584;13.460;2022-08-07T06:19:38;2.88;;;2.03;;
45730;SDS011;31440;48.584;13.460;2022-08-07T06:22:05;2.70;;;2.50;;
45730;SDS011;31440;48.584;13.460;2022-08-07T06:24:31;2.63;;;2.30;;
45730;SDS011;31440;48.584;13.460;2022-08-07T06:26:57;2.67;;;2.00;;
45730;SDS011;31440;48.584;13.460;2022-08-07T06:29:26;2.25;;;1.80;;
45730;SDS011;31440;48.584;13.460;2022-08-07T06:31:53;2.88;;;1.70;;
45730;SDS011;31440;48.584;13.460;2022-08-07T06:34:23;2.55;;;2.35;;
45730;SDS011;31440;48.584;13.460;2022-08-07T06:36:49;2.75;;;1.90;;
45730;SDS011;31440;48.584;13.460;2022-08-07T06:39:15;3.80;;;2.17;;
45730;SDS011;31440;48.584;13.460;2022-08-07T06:41:42;2.10;;;1.75;;
45730;SDS011;31440;48.584;13.460;2022-08-07T06:44:12;1.80;;;1.70;;
45730;SDS011;31440;48.584;13.460;2022-08-07T06:46:39;3.10;;;1.83;;
45730;SDS011;31440;48.584;13.460;2022-08-07T06:49:05;2.30;;;1.88;;
45730;SDS011;31440;48.584;13.460;2022-08-07T06:51:35;2.55;;;2.22;;
45730;SDS011;31440;48.584;13.460;2022-08-07T06:54:05;3.67;;;1.85;;
45730;SDS011;31440;48.584;13.460;2022-08-07T06:56:34;1.92;;;1.73;;
45730;SDS011;31440;48.584;13.460;2022-08-07T06:59:07;3.53;;;2.10;;
45730;SDS011;31440;48.584;13.460;2022-08-07T07:01:42;2.15;;;1.95;;
45730;SDS011;31440;48.584;13.460;2022-08-07T07:04:10;2.85;;;1.77;;
45730;SDS011;31440;48.584;13.460;2022-08-07T07:06:40;2.35;;;2.15;;
45730;SDS011;31440;48.584;13.460;2022-08-07T07:17:25;4.70;;;2.05;;
45730;SDS011;31440;48.584;13.460;2022-08-07T07:19:58;2.58;;;1.40;;
45730;SDS011;31440;48.584;13.460;2022-08-07T07:22:26;2.00;;;1.83;;
45730;SDS011;31440;48.584;13.460;2022-08-07T07:24:53;2.70;;;1.30;;
45730;SDS011;31440;48.584;13.460;2022-08-07T07:27:20;2.35;;;1.65;;
45730;SDS011;31440;48.584;13.460;2022-08-07T07:29:50;1.70;;;1.48;;
45730;SDS011;31440;48.584;13.460;2022-08-07T07:32:18;1.50;;;1.40;;
45730;SDS011;31440;48.584;13.460;2022-08-07T07:34:49;2.28;;;1.73;;
45730;SDS011;31440;48.584;13.460;2022-08-07T07:37:17;3.40;;;1.48;;
45730;SDS011;31440;48.584;13.460;2022-08-07T07:39:45;1.60;;;1.50;;
45730;SDS011;31440;48.584;13.460;2022-08-07T07:42:12;1.88;;;1.50;;
45730;SDS011;31440;48.584;13.460;2022-08-07T07:44:40;3.53;;;1.60;;
45730;SDS011;31440;48.584;13.460;2022-08-07T07:47:09;1.88;;;1.30;;
45730;SDS011;31440;48.584;13.460;2022-08-07T07:49:38;1.38;;;1.30;;
45730;SDS011;31440;48.584;13.460;2022-08-07T07:52:06;1.35;;;1.20;;
45730;SDS011;31440;48.584;13.460;2022-08-07T07:54:33;1.42;;;1.40;;
45730;SDS011;31440;48.584;13.460;2022-08-07T07:57:00;1.20;;;1.20;;
45730;SDS011;31440;48.584;13.460;2022-08-07T07:59:27;1.88;;;1.30;;
45730;SDS011;31440;48.584;13.460;2022-08-07T08:01:54;1.10;;;1.10;;
45730;SDS011;31440;48.584;13.460;2022-08-07T08:04:21;2.08;;;1.40;;
45730;SDS011;31440;48.584;13.460;2022-08-07T08:06:48;1.50;;;1.40;;
45730;SDS011;31440;48.584;13.460;2022-08-07T08:09:15;1.60;;;1.20;;
45730;SDS011;31440;48.584;13.460;2022-08-07T08:11:44;1.48;;;1.38;;
45730;SDS011;31440;48.584;13.460;2022-08-07T08:14:10;2.45;;;1.35;;
45730;SDS011;31440;48.584;13.460;2022-08-07T08:16:37;1.70;;;1.40;;
45730;SDS011;31440;48.584;13.460;2022-08-07T08:19:04;2.30;;;1.48;;
45730;SDS011;31440;48.584;13.460;2022-08-07T08:21:32;1.83;;;1.70;;
45730;SDS011;31440;48.584;13.460;2022-08-07T08:24:20;1.38;;;1.27;;
45730;SDS011;31440;48.584;13.460;2022-08-07T08:27:06;1.63;;;1.52;;
45730;SDS011;31440;48.584;13.460;2022-08-07T08:29:39;2.88;;;2.08;;
45730;SDS011;31440;48.584;13.460;2022-08-07T08:32:09;1.90;;;1.80;;
45730;SDS011;31440;48.584;13.460;2022-08-07T08:34:36;2.20;;;2.10;;
45730;SDS011;31440;48.584;13.460;2022-08-07T08:37:04;3.78;;;2.25;;
45730;SDS011;31440;48.584;13.460;2022-08-07T08:39:33;3.35;;;1.70;;
45730;SDS011;31440;48.584;13.460;2022-08-07T08:42:05;1.80;;;1.70;;
45730;SDS011;31440;48.584;13.460;2022-08-07T08:44:38;4.53;;;2.03;;
45730;SDS011;31440;48.584;13.460;2022-08-07T08:47:24;4.57;;;2.70;;
45730;SDS011;31440;48.584;13.460;2022-08-07T08:55:29;4.18;;;2.05;;
45730;SDS011;31440;48.584;13.460;2022-08-07T08:58:13;2.17;;;2.05;;
45730;SDS011;31440;48.584;13.460;2022-08-07T09:00:45;3.35;;;2.35;;
45730;SDS011;31440;48.584;13.460;2022-08-07T09:09:09;8.40;;;5.45;;
45730;SDS011;31440;48.584;13.460;2022-08-07T09:12:08;2.58;;;2.10;;
45730;SDS011;31440;48.584;13.460;2022-08-07T09:14:51;3.15;;;1.80;;
45730;SDS011;31440;48.584;13.460;2022-08-07T09:17:52;3.70;;;2.17;;
45730;SDS011;31440;48.584;13.460;2022-08-07T09:20:31;2.20;;;1.90;;
45730;SDS011;31440;48.584;13.460;2022-08-07T09:23:16;2.35;;;2.15;;
45730;SDS011;31440;48.584;13.460;2022-08-07T09:28:30;2.53;;;2.33;;
45730;SDS011;31440;48.584;13.460;2022-08-07T09:33:46;2.42;;;2.22;;
45730;SDS011;31440;48.584;13.460;2022-08-07T09:36:17;2.80;;;2.50;;
45730;SDS011;31440;48.584;13.460;2022-08-07T09:41:34;2.85;;;2.08;;
45730;SDS011;31440;48.584;13.460;2022-08-07T09:50:03;3.00;;;1.95;;
45730;SDS011;31440;48.584;13.460;2022-08-07T09:52:48;3.65;;;2.03;;
45730;SDS011;31440;48.584;13.460;2022-08-07T09:58:07;1.60;;;1.50;;
45730;SDS011;31440;48.584;13.460;2022-08-07T10:01:15;2.40;;;1.77;;
45730;SDS011;31440;48.584;13.460;2022-08-07T10:03:48;2.65;;;1.60;;
45730;SDS011;31440;48.584;13.460;2022-08-07T10:06:48;4.95;;;1.73;;
45730;SDS011;31440;48.584;13.460;2022-08-07T10:17:41;3.22;;;2.22;;
45730;SDS011;31440;48.584;13.460;2022-08-07T10:23:57;2.20;;;1.80;;
45730;SDS011;31440;48.584;13.460;2022-08-07T10:26:42;2.08;;;1.98;;
45730;SDS011;31440;48.584;13.460;2022-08-07T10:34:56;1.70;;;1.60;;
45730;SDS011;31440;48.584;13.460;2022-08-07T10:37:41;3.63;;;1.75;;
45730;SDS011;31440;48.584;13.460;2022-08-07T10:45:26;2.35;;;2.05;;
45730;SDS011;31440;48.584;13.460;2022-08-07T10:53:56;2.05;;;1.73;;
45730;SDS011;31440;48.584;13.460;2022-08-07T11:08:11;1.80;;;1.70;;
45730;SDS011;31440;48.584;13.460;2022-08-07T11:11:00;3.33;;;1.88;;
45730;SDS011;31440;48.584;13.460;2022-08-07T11:13:53;2.00;;;1.80;;
45730;SDS011;31440;48.584;13.460;2022-08-07T11:19:15;1.65;;;1.55;;
45730;SDS011;31440;48.584;13.460;2022-08-07T11:21:49;2.38;;;1.80;;
45730;SDS011;31440;48.584;13.460;2022-08-07T11:24:32;1.55;;;1.45;;
45730;SDS011;31440;48.584;13.460;2022-08-07T11:27:14;1.70;;;1.60;;
45730;SDS011;31440;48.584;13.460;2022-08-07T11:32:34;2.60;;;1.70;;
45730;SDS011;31440;48.584;13.460;2022-08-07T11:35:11;2.58;;;1.67;;
45730;SDS011;31440;48.584;13.460;2022-08-07T11:37:57;1.70;;;1.60;;
45730;SDS011;31440;48.584;13.460;2022-08-07T11:43:34;1.38;;;1.33;;
45730;SDS011;31440;48.584;13.460;2022-08-07T12:02:41;1.50;;;1.40;;
45730;SDS011;31440;48.584;13.460;2022-08-07T12:08:10;1.67;;;1.58;;
45730;SDS011;31440;48.584;13.460;2022-08-07T12:10:41;3.28;;;1.58;;
45730;SDS011;31440;48.584;13.460;2022-08-07T12:16:06;2.90;;;1.60;;
45730;SDS011;31440;48.584;13.460;2022-08-07T12:18:45;1.70;;;1.60;;
45730;SDS011;31440;48.584;13.460;2022-08-07T12:21:25;1.70;;;1.60;;
45730;SDS011;31440;48.584;13.460;2022-08-07T12:26:53;2.00;;;1.80;;
45730;SDS011;31440;48.584;13.460;2022-08-07T12:29:30;2.30;;;1.73;;
45730;SDS011;31440;48.584;13.460;2022-08-07T12:34:49;1.60;;;1.50;;
45730;SDS011;31440;48.584;13.460;2022-08-07T12:37:17;1.33;;;1.33;;
45730;SDS011;31440;48.584;13.460;2022-08-07T12:39:44;2.00;;;1.77;;
45730;SDS011;31440;48.584;13.460;2022-08-07T12:42:11;1.98;;;1.77;;
45730;SDS011;31440;48.584;13.460;2022-08-07T12:44:42;2.00;;;1.80;;
45730;SDS011;31440;48.584;13.460;2022-08-07T12:52:50;2.03;;;1.83;;
45730;SDS011;31440;48.584;13.460;2022-08-07T12:55:37;1.50;;;1.40;;
45730;SDS011;31440;48.584;13.460;2022-08-07T12:58:09;1.60;;;1.50;;
45730;SDS011;31440;48.584;13.460;2022-08-07T13:09:32;1.17;;;1.17;;
45730;SDS011;31440;48.584;13.460;2022-08-07T13:12:00;1.73;;;1.60;;
45730;SDS011;31440;48.584;13.460;2022-08-07T13:17:23;1.70;;;1.60;;
45730;SDS011;31440;48.584;13.460;2022-08-07T13:19:55;1.52;;;1.42;;
45730;SDS011;31440;48.584;13.460;2022-08-07T13:22:28;1.90;;;1.60;;
45730;SDS011;31440;48.584;13.460;2022-08-07T13:25:14;1.45;;;1.35;;
45730;SDS011;31440;48.584;13.460;2022-08-07T13:27:49;1.95;;;1.60;;
45730;SDS011;31440;48.584;13.460;2022-08-07T13:30:19;1.50;;;1.40;;
45730;SDS011;31440;48.584;13.460;2022-08-07T13:32:57;2.95;;;1.95;;
45730;SDS011;31440;48.584;13.460;2022-08-07T13:38:22;1.88;;;1.75;;
45730;SDS011;31440;48.584;13.460;2022-08-07T13:44:05;9.48;;;5.97;;
45730;SDS011;31440;48.584;13.460;2022-08-07T13:46:34;7.68;;;5.63;;
45730;SDS011;31440;48.584;13.460;2022-08-07T13:49:02;2.55;;;1.90;;
45730;SDS011;31440;48.584;13.460;2022-08-07T13:51:31;2.45;;;1.50;;
45730;SDS011;31440;48.584;13.460;2022-08-07T13:54:04;2.40;;;1.83;;
45730;SDS011;31440;48.584;13.460;2022-08-07T13:56:32;5.03;;;1.70;;
45730;SDS011;31440;48.584;13.460;2022-08-07T13:59:00;1.73;;;1.60;;
45730;SDS011;31440;48.584;13.460;2022-08-07T14:01:28;1.70;;;1.60;;
45730;SDS011;31440;48.584;13.460;2022-08-07T14:03:56;1.40;;;1.30;;
45730;SDS011;31440;48.584;13.460;2022-08-07T14:06:29;1.50;;;1.40;;
45730;SDS011;31440;48.584;13.460;2022-08-07T14:08:57;1.58;;;1.48;;
45730;SDS011;31440;48.584;13.460;2022-08-07T14:11:24;5.93;;;2.28;;
45730;SDS011;31440;48.584;13.460;2022-08-07T14:13:53;1.90;;;1.58;;
45730;SDS011;31440;48.584;13.460;2022-08-07T14:16:32;3.15;;;1.75;;
45730;SDS011;31440;48.584;13.460;2022-08-07T14:19:02;2.08;;;1.67;;
45730;SDS011;31440;48.584;13.460;2022-08-07T14:21:30;1.60;;;1.50;;
45730;SDS011;31440;48.584;13.460;2022-08-07T14:24:34;1.80;;;1.70;;
45730;SDS011;31440;48.584;13.460;2022-08-07T14:26:56;1.40;;;1.38;;
45730;SDS011;31440;48.584;13.460;2022-08-07T14:29:34;1.95;;;1.33;;
45730;SDS011;31440;48.584;13.460;2022-08-07T14:32:04;1.83;;;1.58;;
45730;SDS011;31440;48.584;13.460;2022-08-07T14:34:32;1.70;;;1.60;;
45730;SDS011;31440;48.584;13.460;2022-08-07T14:37:00;1.67;;;1.58;;
45730;SDS011;31440;48.584;13.460;2022-08-07T14:39:30;2.58;;;1.65;;
45730;SDS011;31440;48.584;13.460;2022-08-07T14:42:01;3.20;;;1.50;;
45730;SDS011;31440;48.584;13.460;2022-08-07T14:44:28;1.67;;;1.58;;
45730;SDS011;31440;48.584;13.460;2022-08-07T14:46:55;1.73;;;1.38;;
45730;SDS011;31440;48.584;13.460;2022-08-07T14:49:27;1.73;;;1.63;;
45730;SDS011;31440;48.584;13.460;2022-08-07T14:51:55;1.25;;;1.20;;
45730;SDS011;31440;48.584;13.460;2022-08-07T14:54:23;2.65;;;1.45;;
45730;SDS011;31440;48.584;13.460;2022-08-07T14:56:54;1.35;;;1.25;;
45730;SDS011;31440;48.584;13.460;2022-08-07T14:59:21;1.65;;;1.30;;
45730;SDS011;31440;48.584;13.460;2022-08-07T15:01:51;2.25;;;1.63;;
45730;SDS011;31440;48.584;13.460;2022-08-07T15:04:18;1.95;;;1.85;;
45730;SDS011;31440;48.584;13.460;2022-08-07T15:06:46;1.45;;;1.33;;
45730;SDS011;31440;48.584;13.460;2022-08-07T15:09:14;1.60;;;1.50;;
45730;SDS011;31440;48.584;13.460;2022-08-07T15:11:53;1.73;;;1.50;;
45730;SDS011;31440;48.584;13.460;2022-08-07T15:14:29;2.35;;;1.48;;
45730;SDS011;31440;48.584;13.460;2022-08-07T15:16:58;1.98;;;1.40;;
45730;SDS011;31440;48.584;13.460;2022-08-07T15:19:27;1.58;;;1.48;;
45730;SDS011;31440;48.584;13.460;2022-08-07T15:21:57;5.43;;;1.60;;
45730;SDS011;31440;48.584;13.460;2022-08-07T15:24:30;2.15;;;1.67;;
45730;SDS011;31440;48.584;13.460;2022-08-07T15:27:08;2.20;;;1.48;;
45730;SDS011;31440;48.584;13.460;2022-08-07T15:29:38;1.60;;;1.40;;
45730;SDS011;31440;48.584;13.460;2022-08-07T15:32:06;15.93;;;2.08;;
45730;SDS011;31440;48.584;13.460;2022-08-07T15:34:36;1.75;;;1.63;;
45730;SDS011;31440;48.584;13.460;2022-08-07T15:37:18;1.60;;;1.50;;
45730;SDS011;31440;48.584;13.460;2022-08-07T15:39:48;2.65;;;1.80;;
45730;SDS011;31440;48.584;13.460;2022-08-07T15:45:05;1.42;;;1.33;;
45730;SDS011;31440;48.584;13.460;2022-08-07T15:47:34;2.53;;;1.98;;
45730;SDS011;31440;48.584;13.460;2022-08-07T15:50:05;2.20;;;1.50;;
45730;SDS011;31440;48.584;13.460;2022-08-07T15:52:36;2.10;;;1.60;;
45730;SDS011;31440;48.584;13.460;2022-08-07T15:55:04;3.42;;;1.70;;
45730;SDS011;31440;48.584;13.460;2022-08-07T15:57:33;2.88;;;1.60;;
45730;SDS011;31440;48.584;13.460;2022-08-07T16:00:00;2.00;;;1.80;;
45730;SDS011;31440;48.584;13.460;2022-08-07T16:02:30;1.88;;;1.70;;
45730;SDS011;31440;48.584;13.460;2022-08-07T16:05:05;2.05;;;1.95;;
45730;SDS011;31440;48.584;13.460;2022-08-07T16:07:53;2.10;;;1.90;;
45730;SDS011;31440;48.584;13.460;2022-08-07T16:10:24;1.70;;;1.60;;
45730;SDS011;31440;48.584;13.460;2022-08-07T16:13:07;2.08;;;1.98;;
45730;SDS011;31440;48.584;13.460;2022-08-07T16:16:05;1.92;;;1.67;;
45730;SDS011;31440;48.584;13.460;2022-08-07T16:24:43;1.80;;;1.60;;
45730;SDS011;31440;48.584;13.460;2022-08-07T16:27:25;1.80;;;1.70;;
45730;SDS011;31440;48.584;13.460;2022-08-07T16:32:42;4.38;;;2.13;;
45730;SDS011;31440;48.584;13.460;2022-08-07T16:46:18;2.00;;;1.70;;
45730;SDS011;31440;48.584;13.460;2022-08-07T16:55:05;3.03;;;1.73;;
45730;SDS011;31440;48.584;13.460;2022-08-07T16:57:35;1.80;;;1.70;;
45730;SDS011;31440;48.584;13.460;2022-08-07T17:00:17;2.20;;;2.00;;
45730;SDS011;31440;48.584;13.460;2022-08-07T17:07:50;3.08;;;1.60;;
45730;SDS011;31440;48.584;13.460;2022-08-07T17:10:29;1.95;;;1.83;;
45730;SDS011;31440;48.584;13.460;2022-08-07T17:13:03;1.73;;;1.63;;
45730;SDS011;31440;48.584;13.460;2022-08-07T17:16:02;3.25;;;1.80;;
45730;SDS011;31440;48.584;13.460;2022-08-07T17:18:39;2.88;;;1.70;;
45730;SDS011;31440;48.584;13.460;2022-08-07T17:21:12;2.67;;;1.70;;
45730;SDS011;31440;48.584;13.460;2022-08-07T17:31:45;1.92;;;1.83;;
45730;SDS011;31440;48.584;13.460;2022-08-07T17:34:18;7.68;;;1.98;;
45730;SDS011;31440;48.584;13.460;2022-08-07T17:36:53;2.63;;;1.90;;
45730;SDS011;31440;48.584;13.460;2022-08-07T17:39:34;2.17;;;1.60;;
45730;SDS011;31440;48.584;13.460;2022-08-07T17:42:20;2.88;;;2.05;;
45730;SDS011;31440;48.584;13.460;2022-08-07T17:45:08;3.75;;;2.13;;
45730;SDS011;31440;48.584;13.460;2022-08-07T17:47:38;2.70;;;2.38;;
45730;SDS011;31440;48.584;13.460;2022-08-07T17:50:11;2.95;;;2.05;;
45730;SDS011;31440;48.584;13.460;2022-08-07T17:52:53;4.57;;;2.08;;
45730;SDS011;31440;48.584;13.460;2022-08-07T17:55:36;2.40;;;2.20;;
45730;SDS011;31440;48.584;13.460;2022-08-07T17:58:16;2.08;;;1.92;;
45730;SDS011;31440;48.584;13.460;2022-08-07T18:00:46;3.53;;;2.50;;
45730;SDS011;31440;48.584;13.460;2022-08-07T18:03:27;2.00;;;1.90;;
45730;SDS011;31440;48.584;13.460;2022-08-07T18:06:00;3.75;;;2.13;;
45730;SDS011;31440;48.584;13.460;2022-08-07T18:11:25;3.72;;;1.92;;
45730;SDS011;31440;48.584;13.460;2022-08-07T18:13:59;2.33;;;2.13;;